首页
METAR-TAF:

METAR-TAF

机场 :

Batajnica, 塞尔维亚

纬度: 44-56-07N, 经度: 020-15-27E, 海拔: 86米

当前天气观测

该预报发布于28分钟前的11:00 UTC
风速9节,风向东南,在之间变化
温度 32°C
湿度 36%
气压 1013 hPa
能见度10公里或以上
1500米以下无云,无积雨云

METAR: LYBT 111100Z 14009KT 100V180 CAVOK 32/15 Q1013 NOSIG

时间: 13:28 (11:28 UTC)

预报

该预报发布于6小时和28分钟前的05:00 UTC
预报有效从11日的 06点(UTC)到 12日的 06点(UTC)
风速8节,风向东转东北
能见度10公里或以上
1500米以下无云,无积雨云
短暂存在
从 11日的 06点(UTC)到 11日的 12点(UTC)
风速15节,风向,有时为25节阵风
几率 40% :
短暂存在
从 11日的 19点(UTC)到 11日的 22点(UTC)
散云层高于3000英尺, 塔状积云.
散云层高于3300英尺
阵雨
成为
从 11日的 21点(UTC)到 11日的 23点(UTC)
风速15节,风向西转西北,有时为25节阵风
短暂存在
从 12日的 01点(UTC)到 12日的 06点(UTC)
多云层高于1500英尺
多云层高于3000英尺

TAF: LYBT 110500Z 1106/1206 07008KT CAVOK TX33/1113Z TN16/1203Z TEMPO 1106/1112 10015G25KT PROB40 TEMPO 1119/1122 SHRA SCT030TCU SCT033 BECMG 1121/1123 30015G25KT TEMPO 1201/1206 RA BKN015 BKN030

超过4000个机场的气象观测和天气预报(METAR&TAF报告)。

可查询的气象台以黄色和红色小点在地图上表示。

将鼠标移到小点上方,可查看气象台名称。

然后点击查看天气观测和预报。

如需切换地图:点击带黑十字的绿色按钮放大地图;点击带横线的绿色按钮缩小地图;或者点击绿色箭头查看邻近地区的地图。


METAR-TAF: